CheckWX is a tool to help pilots better visualize weather data.  It is not intended as a substitute for an official pre-flight weather briefing.

14:49:46 UTC

KIKT METAR
Nakika
Nakika, Mississippi, USA
Current

35 mins ago

KIKT 221415Z AUTO 11011KT 10SM CLR 22/09 A3020 RMK A01
Observed
Apr-22 @ 14:15 UTC
Wind
  • 110° at 11 KTS
Visibility
10 SM
Flight Rules
VFR
Cloud Levels
  • Clear skies
Temperature
22°C / 72°F
Dewpoint
C / 48°F
Humidity
44%
Altimeter
30.2" Hg
Pressure
1022.72 hPa
Previous

55 mins ago

KIKT 221355Z AUTO 10012KT 10SM CLR 22/09 A3020 RMK A01
Observed
Apr-22 @ 13:55 UTC
Wind
  • 100° at 12 KTS
Visibility
10 SM
Flight Rules
VFR
Cloud Levels
  • Clear skies
Temperature
22°C / 72°F
Dewpoint
C / 48°F
Humidity
44%
Altimeter
30.2" Hg
Pressure
1022.72 hPa
Previous

1 hour ago

KIKT 221335Z AUTO 11013KT 10SM CLR 22/09 A3020 RMK A01
Observed
Apr-22 @ 13:35 UTC
Wind
  • 110° at 13 KTS
Visibility
10 SM
Flight Rules
VFR
Cloud Levels
  • Clear skies
Temperature
22°C / 72°F
Dewpoint
C / 48°F
Humidity
44%
Altimeter
30.2" Hg
Pressure
1022.72 hPa